Time;durP1;ratioP1;P1;durP2;ratioP2;P2;SDS_P1;SDS_P2;PMS_P1;PMS_P2;Temp;Humidity;BMP_temperature;BMP_pressure;BME280_temperature;BME280_humidity;BME280_pressure;Samples;Min_cycle;Max_cycle;Signal;HPM_P1;HPM_P2
2024/03/05 00:00:55;;;;;;;19.30;7.35;;;10.00;1.00;;;;;;5056040;28;20520;-64
2024/03/05 00:03:23;;;;;;;13.05;6.93;;;9.90;1.00;;;;;;5055129;28;20536;-64
2024/03/05 00:05:50;;;;;;;16.83;6.97;;;9.90;1.00;;;;;;5055788;28;20495;-65
2024/03/05 00:08:17;;;;;;;14.77;6.70;;;9.90;1.00;;;;;;5055003;28;20467;-64
2024/03/05 00:10:44;;;;;;;15.07;6.60;;;9.80;1.00;;;;;;5055369;28;20472;-64
2024/03/05 00:13:20;;;;;;;15.35;7.80;;;9.90;7.70;;;;;;5055060;28;20516;-64
2024/03/05 00:15:47;;;;;;;10.98;6.38;;;9.90;1.00;;;;;;5048544;28;20870;-64
2024/03/05 00:18:14;;;;;;;16.65;7.47;;;9.80;7.20;;;;;;5050161;28;20512;-64
2024/03/05 00:20:42;;;;;;;13.77;7.15;;;9.80;1.50;;;;;;5036786;28;20855;-64
2024/03/05 00:23:09;;;;;;;14.57;7.13;;;9.80;1.00;;;;;;5053310;28;20528;-64
2024/03/05 00:25:37;;;;;;;12.93;6.07;;;9.70;2.90;;;;;;5050140;28;20433;-64
2024/03/05 00:28:04;;;;;;;11.93;5.35;;;9.80;23.30;;;;;;5054322;28;20436;-64
2024/03/05 00:30:34;;;;;;;15.40;6.10;;;9.90;5.10;;;;;;5053635;28;20498;-64
2024/03/05 00:33:01;;;;;;;13.20;5.88;;;9.80;1.00;;;;;;5056232;28;20457;-63
2024/03/05 00:35:28;;;;;;;15.57;7.13;;;9.80;1.00;;;;;;5070715;28;20464;-63
2024/03/05 00:37:56;;;;;;;12.93;5.68;;;9.80;1.00;;;;;;5053102;28;20429;-63
2024/03/05 00:40:24;;;;;;;15.45;7.25;;;9.60;1.00;;;;;;5052755;28;21237;-63
2024/03/05 00:42:50;;;;;;;15.13;6.80;;;9.60;8.00;;;;;;5052060;28;20481;-63
2024/03/05 00:45:21;;;;;;;15.50;6.77;;;9.50;11.60;;;;;;5052015;28;20527;-63
2024/03/05 00:47:48;;;;;;;14.88;6.60;;;9.50;19.00;;;;;;5053436;28;20436;-64
2024/03/05 00:50:18;;;;;;;12.93;6.03;;;9.40;19.10;;;;;;5055057;28;20512;-64
2024/03/05 00:52:51;;;;;;;13.02;6.20;;;9.40;25.00;;;;;;5054418;28;20483;-64
2024/03/05 00:55:19;;;;;;;15.25;7.90;;;9.40;31.10;;;;;;5054140;28;20891;-64
2024/03/05 00:57:46;;;;;;;13.65;5.60;;;9.40;31.10;;;;;;5054931;28;20891;-64
2024/03/05 01:00:14;;;;;;;15.68;7.15;;;9.40;37.50;;;;;;5053385;28;20516;-64
2024/03/05 01:02:42;;;;;;;12.60;6.83;;;9.40;21.20;;;;;;5059005;28;20427;-64
2024/03/05 01:05:09;;;;;;;10.10;5.15;;;9.30;28.00;;;;;;5074359;28;20439;-63
2024/03/05 01:07:36;;;;;;;13.10;5.38;;;9.30;35.60;;;;;;5075169;28;20786;-64
2024/03/05 01:10:07;;;;;;;12.80;5.97;;;9.30;42.80;;;;;;5074254;28;20510;-64
2024/03/05 01:12:35;;;;;;;9.40;4.60;;;9.50;36.90;;;;;;5075215;28;20562;-63
2024/03/05 01:15:02;;;;;;;14.60;6.32;;;9.70;23.50;;;;;;5074976;28;20442;-64
2024/03/05 01:17:29;;;;;;;11.60;6.35;;;9.80;1.00;;;;;;5075247;28;20514;-64
2024/03/05 01:19:56;;;;;;;14.13;6.97;;;9.80;1.00;;;;;;5074854;28;20769;-64
2024/03/05 01:22:23;;;;;;;12.00;6.07;;;9.90;1.00;;;;;;5056248;28;20429;-64
2024/03/05 01:24:50;;;;;;;13.55;6.15;;;9.70;1.00;;;;;;5053600;28;20468;-64
2024/03/05 01:27:18;;;;;;;14.77;6.70;;;9.50;1.00;;;;;;5054067;28;20429;-64
2024/03/05 01:29:47;;;;;;;13.45;6.30;;;9.30;4.10;;;;;;5053787;28;20731;-64
2024/03/05 01:32:14;;;;;;;12.38;6.07;;;9.20;25.10;;;;;;5052776;28;20831;-63
2024/03/05 01:34:43;;;;;;;13.27;6.00;;;9.10;41.30;;;;;;5053358;28;20535;-64
2024/03/05 01:37:10;;;;;;;15.70;6.90;;;9.00;57.50;;;;;;5034061;28;20772;-64
2024/03/05 01:39:37;;;;;;;12.23;6.35;;;9.00;57.90;;;;;;5038473;28;20437;-63
2024/03/05 01:42:07;;;;;;;18.13;7.80;;;8.90;65.40;;;;;;5054308;28;20830;-64
2024/03/05 01:44:34;;;;;;;13.47;6.43;;;8.80;82.10;;;;;;5054403;28;20792;-64
2024/03/05 01:47:05;;;;;;;15.40;6.73;;;8.80;99.90;;;;;;5055946;28;20427;-64
2024/03/05 01:49:33;;;;;;;17.77;7.88;;;8.90;99.90;;;;;;5054323;28;20449;-64
2024/03/05 01:52:03;;;;;;;15.07;7.17;;;8.90;96.30;;;;;;5054108;28;20524;-63
2024/03/05 01:54:30;;;;;;;15.32;7.30;;;8.80;93.50;;;;;;5054577;28;20494;-63
2024/03/05 01:57:01;;;;;;;15.13;7.00;;;8.70;98.20;;;;;;5057095;28;20539;-64
2024/03/05 01:59:28;;;;;;;18.60;7.87;;;8.70;99.90;;;;;;5058231;28;20421;-64
2024/03/05 02:01:57;;;;;;;14.55;5.85;;;8.70;99.90;;;;;;5057441;28;20508;-65
2024/03/05 02:04:26;;;;;;;13.43;6.85;;;8.70;99.90;;;;;;5057829;28;20885;-64
2024/03/05 02:06:54;;;;;;;12.57;5.90;;;8.80;99.90;;;;;;5057377;28;20508;-64
2024/03/05 02:09:22;;;;;;;12.93;5.75;;;8.90;99.90;;;;;;5058330;28;20528;-64
2024/03/05 02:11:49;;;;;;;11.60;5.18;;;8.90;96.00;;;;;;5065765;28;20436;-62
2024/03/05 02:14:16;;;;;;;16.92;6.47;;;9.20;96.20;;;;;;5057049;28;20417;-62
2024/03/05 02:16:45;;;;;;;14.35;5.80;;;9.50;73.10;;;;;;5057727;28;20472;-63
2024/03/05 02:19:12;;;;;;;12.50;6.80;;;9.70;37.70;;;;;;5058216;28;20448;-63
2024/03/05 02:21:40;;;;;;;13.10;5.97;;;9.80;11.40;;;;;;5050178;28;20510;-63
2024/03/05 02:24:07;;;;;;;14.95;5.43;;;9.50;1.00;;;;;;5057313;28;20517;-64
2024/03/05 02:26:35;;;;;;;12.30;5.75;;;9.40;40.50;;;;;;5057239;28;20437;-63
2024/03/05 02:29:03;;;;;;;10.70;5.35;;;9.50;52.10;;;;;;5057073;28;20448;-63
2024/03/05 02:31:30;;;;;;;14.07;6.10;;;9.80;29.00;;;;;;5057671;28;20425;-63
2024/03/05 02:33:57;;;;;;;16.45;6.53;;;9.70;9.10;;;;;;5057387;28;20820;-63
2024/03/05 02:36:26;;;;;;;12.60;5.60;;;9.70;27.90;;;;;;5056985;28;20755;-63
2024/03/05 02:38:54;;;;;;;13.75;7.20;;;9.60;20.30;;;;;;5056387;28;20795;-63
2024/03/05 02:41:21;;;;;;;13.20;6.50;;;9.60;20.50;;;;;;5056757;28;20524;-64
2024/03/05 02:43:48;;;;;;;15.73;7.30;;;9.30;23.90;;;;;;5057202;28;20777;-63
2024/03/05 02:46:15;;;;;;;15.85;7.40;;;9.10;55.40;;;;;;5057795;28;20465;-64
2024/03/05 02:48:43;;;;;;;12.75;5.88;;;9.00;86.20;;;;;;5057456;28;20421;-63
2024/03/05 02:51:10;;;;;;;15.60;7.22;;;9.00;93.40;;;;;;5056978;28;20524;-64
2024/03/05 02:53:38;;;;;;;15.57;6.78;;;8.90;99.90;;;;;;5056654;28;20437;-64
2024/03/05 02:56:09;;;;;;;17.70;7.28;;;8.80;99.90;;;;;;5057550;28;20495;-64
2024/03/05 02:58:36;;;;;;;16.48;6.95;;;8.60;99.90;;;;;;5056153;28;20504;-65
2024/03/05 03:01:03;;;;;;;14.27;6.90;;;8.60;99.90;;;;;;5055034;28;20895;-64
2024/03/05 03:03:30;;;;;;;15.00;7.27;;;8.50;99.90;;;;;;5056504;28;20944;-64
2024/03/05 03:05:57;;;;;;;17.05;7.45;;;8.50;99.90;;;;;;5057072;28;20758;-63
2024/03/05 03:08:24;;;;;;;15.20;8.10;;;8.50;99.90;;;;;;5055847;28;20867;-63
2024/03/05 03:10:51;;;;;;;14.23;7.22;;;8.50;99.90;;;;;;5069522;28;20447;-63
2024/03/05 03:13:20;;;;;;;18.20;6.38;;;8.50;99.90;;;;;;5076835;28;20433;-63
2024/03/05 03:15:47;;;;;;;19.90;7.60;;;8.40;99.90;;;;;;5060524;28;20441;-63
2024/03/05 03:18:15;;;;;;;12.35;6.88;;;8.40;99.90;;;;;;5057489;28;20457;-64
2024/03/05 03:20:42;;;;;;;15.60;8.15;;;8.40;99.90;;;;;;5056640;28;20448;-63
2024/03/05 03:23:09;;;;;;;14.85;6.78;;;8.40;99.90;;;;;;5056584;28;20516;-64
2024/03/05 03:25:36;;;;;;;18.10;7.85;;;8.40;99.90;;;;;;5056730;28;20532;-63
2024/03/05 03:28:03;;;;;;;17.45;8.05;;;8.30;99.90;;;;;;5056414;28;20433;-64
2024/03/05 03:30:31;;;;;;;17.20;7.25;;;8.30;99.90;;;;;;5056710;28;20744;-64
2024/03/05 03:32:58;;;;;;;17.25;7.75;;;8.20;99.90;;;;;;5055481;28;20457;-64
2024/03/05 03:35:25;;;;;;;17.05;8.45;;;8.20;99.90;;;;;;5056536;28;20508;-63
2024/03/05 03:37:52;;;;;;;16.15;7.45;;;8.10;99.90;;;;;;5056365;28;20409;-64
2024/03/05 03:40:21;;;;;;;19.58;7.80;;;8.20;99.90;;;;;;5056100;28;20429;-64
2024/03/05 03:42:49;;;;;;;17.58;7.93;;;8.30;99.90;;;;;;5055866;28;20855;-64
2024/03/05 03:45:16;;;;;;;14.02;6.53;;;8.40;99.90;;;;;;5056033;28;20426;-64
2024/03/05 03:47:46;;;;;;;17.20;7.93;;;8.40;99.90;;;;;;5055769;28;20495;-63
2024/03/05 03:50:12;;;;;;;16.45;7.25;;;8.40;99.90;;;;;;5056109;28;20429;-64
2024/03/05 03:52:43;;;;;;;17.25;6.50;;;8.40;99.90;;;;;;5056017;28;20752;-63
2024/03/05 03:55:11;;;;;;;16.10;7.07;;;8.30;99.90;;;;;;5056393;28;20433;-63
2024/03/05 03:57:37;;;;;;;16.83;7.28;;;8.40;99.90;;;;;;5055411;28;20504;-63
2024/03/05 04:00:07;;;;;;;13.85;6.50;;;8.50;99.90;;;;;;5055999;28;20515;-64
2024/03/05 04:02:35;;;;;;;14.68;5.80;;;8.50;99.90;;;;;;5056744;28;20779;-63
2024/03/05 04:05:04;;;;;;;16.55;6.30;;;8.60;99.90;;;;;;5055691;28;20428;-64
2024/03/05 04:07:31;;;;;;;15.20;6.50;;;8.50;99.90;;;;;;5055708;28;20535;-63
2024/03/05 04:10:00;;;;;;;12.68;5.70;;;8.50;99.90;;;;;;5061655;28;20488;-64
2024/03/05 04:12:27;;;;;;;12.80;5.40;;;8.50;99.90;;;;;;5069112;28;20429;-63
2024/03/05 04:14:54;;;;;;;13.55;6.15;;;8.50;99.90;;;;;;5055704;28;20524;-64
2024/03/05 04:17:21;;;;;;;13.02;6.55;;;8.60;99.90;;;;;;5054641;28;21038;-63
2024/03/05 04:19:48;;;;;;;11.85;5.53;;;8.60;99.90;;;;;;5055496;28;20429;-63
2024/03/05 04:22:17;;;;;;;15.73;6.73;;;8.70;99.90;;;;;;5056122;28;20693;-63
2024/03/05 04:24:52;;;;;;;12.18;5.60;;;8.70;99.90;;;;;;5055959;28;20437;-64
2024/03/05 04:27:19;;;;;;;14.85;6.85;;;8.60;99.90;;;;;;5054911;28;20767;-63
2024/03/05 04:29:52;;;;;;;14.75;7.40;;;8.60;99.90;;;;;;5055630;28;20524;-64
2024/03/05 04:32:19;;;;;;;15.10;7.25;;;8.50;99.90;;;;;;5055330;28;20851;-63
2024/03/05 04:34:49;;;;;;;14.95;6.22;;;8.50;99.90;;;;;;5054940;28;20471;-63
2024/03/05 04:37:18;;;;;;;14.02;5.70;;;8.50;99.90;;;;;;5054181;28;20862;-63
2024/03/05 04:39:46;;;;;;;13.48;5.75;;;8.50;99.90;;;;;;5052134;28;20532;-63
2024/03/05 04:42:14;;;;;;;13.27;6.22;;;8.60;99.90;;;;;;5052480;28;20437;-63
2024/03/05 04:44:43;;;;;;;15.93;7.40;;;8.60;99.90;;;;;;5051933;28;20429;-63
2024/03/05 04:47:10;;;;;;;16.25;7.53;;;8.70;99.90;;;;;;5051559;28;20979;-63
2024/03/05 04:49:37;;;;;;;14.77;6.18;;;8.70;99.90;;;;;;5051266;28;20522;-61
2024/03/05 04:52:04;;;;;;;10.38;4.22;;;8.70;99.90;;;;;;5051488;28;20915;-60
2024/03/05 04:54:34;;;;;;;16.23;7.47;;;8.80;99.90;;;;;;5053724;28;20518;-61
2024/03/05 04:57:01;;;;;;;17.40;7.47;;;8.90;99.90;;;;;;5053768;28;20431;-61
2024/03/05 04:59:28;;;;;;;15.45;6.72;;;8.60;99.90;;;;;;5053319;28;20483;-61
2024/03/05 05:01:55;;;;;;;16.33;6.57;;;8.60;99.90;;;;;;5053919;28;20851;-61
2024/03/05 05:04:22;;;;;;;17.58;7.75;;;8.60;99.90;;;;;;5054201;28;20456;-62
2024/03/05 05:06:49;;;;;;;17.53;7.90;;;8.60;99.90;;;;;;5053923;28;20575;-61
2024/03/05 05:09:16;;;;;;;14.20;5.93;;;8.60;99.90;;;;;;5053965;28;20508;-62
2024/03/05 05:11:44;;;;;;;14.60;6.60;;;8.60;99.90;;;;;;5047361;28;20490;-61
2024/03/05 05:14:11;;;;;;;14.63;7.18;;;8.50;99.90;;;;;;5054136;28;20497;-61
2024/03/05 05:16:38;;;;;;;17.52;7.38;;;8.50;99.90;;;;;;5053564;28;20439;-61
2024/03/05 05:19:05;;;;;;;18.58;7.75;;;8.40;99.90;;;;;;5054354;28;20524;-61
2024/03/05 05:21:32;;;;;;;16.40;7.10;;;8.40;99.90;;;;;;5053731;28;20454;-61
2024/03/05 05:23:59;;;;;;;15.60;7.18;;;8.40;99.90;;;;;;5054461;28;20824;-61
2024/03/05 05:26:26;;;;;;;20.93;7.40;;;8.50;99.90;;;;;;5034370;28;20466;-61
2024/03/05 05:28:55;;;;;;;18.20;6.57;;;8.50;99.90;;;;;;5034091;28;20760;-61
2024/03/05 05:31:26;;;;;;;14.13;7.47;;;8.40;99.90;;;;;;5035394;28;20434;-61
2024/03/05 05:33:53;;;;;;;15.73;6.75;;;8.40;99.90;;;;;;5037769;28;20438;-60
2024/03/05 05:36:20;;;;;;;14.38;7.03;;;8.40;99.90;;;;;;5037528;28;20512;-60
2024/03/05 05:38:48;;;;;;;16.70;5.45;;;8.40;99.90;;;;;;5037924;28;20517;-60
2024/03/05 05:41:16;;;;;;;14.73;7.03;;;8.40;99.90;;;;;;4974367;28;1816137;-60
2024/03/05 05:43:43;;;;;;;14.18;6.25;;;8.40;99.90;;;;;;5038787;28;20426;-60
2024/03/05 05:46:14;;;;;;;15.10;6.93;;;8.40;99.90;;;;;;5039299;28;20695;-60
2024/03/05 05:48:43;;;;;;;15.40;6.65;;;8.40;99.90;;;;;;5038703;28;20439;-60
2024/03/05 05:51:11;;;;;;;16.15;7.05;;;8.40;99.90;;;;;;5043882;28;20610;-60
2024/03/05 05:53:38;;;;;;;15.25;7.00;;;8.40;99.90;;;;;;5034775;28;20438;-60
2024/03/05 05:56:06;;;;;;;21.23;7.55;;;8.40;99.90;;;;;;5052519;28;20430;-61
2024/03/05 05:58:33;;;;;;;16.52;6.78;;;8.40;99.90;;;;;;5056723;28;20445;-61
2024/03/05 06:01:04;;;;;;;14.38;6.43;;;8.40;99.90;;;;;;5054457;28;20543;-60
2024/03/05 06:03:33;;;;;;;15.93;6.77;;;8.40;99.90;;;;;;5045049;28;20996;-61
2024/03/05 06:06:00;;;;;;;19.30;7.70;;;8.40;99.90;;;;;;5051128;28;20460;-61
2024/03/05 06:08:27;;;;;;;16.10;7.65;;;8.40;99.90;;;;;;5040125;28;20435;-60
2024/03/05 06:10:54;;;;;;;17.85;7.60;;;8.40;99.90;;;;;;5041343;28;20508;-61
2024/03/05 06:13:23;;;;;;;15.38;7.35;;;8.40;99.90;;;;;;5057664;28;20432;-61
2024/03/05 06:15:50;;;;;;;17.30;7.82;;;8.40;99.90;;;;;;5056556;28;20433;-61
2024/03/05 06:18:17;;;;;;;16.20;5.85;;;8.40;99.90;;;;;;5039791;28;20492;-61
2024/03/05 06:20:46;;;;;;;18.60;7.57;;;8.60;99.90;;;;;;5037757;28;20529;-61
2024/03/05 06:23:13;;;;;;;15.33;7.43;;;8.70;99.90;;;;;;5037622;28;20731;-60
2024/03/05 06:25:40;;;;;;;17.10;7.10;;;8.60;99.90;;;;;;5050501;28;20492;-62
2024/03/05 06:28:09;;;;;;;16.27;7.35;;;8.70;99.90;;;;;;5040628;28;20445;-61
2024/03/05 06:30:36;;;;;;;17.13;7.90;;;8.50;99.90;;;;;;5053246;28;20795;-61
2024/03/05 06:33:06;;;;;;;19.02;9.23;;;8.40;99.90;;;;;;5046178;28;20435;-61
2024/03/05 06:35:33;;;;;;;19.75;8.05;;;8.40;99.90;;;;;;5035611;28;20489;-61
2024/03/05 06:38:03;;;;;;;19.70;8.77;;;8.40;99.90;;;;;;5038705;28;20506;-62
2024/03/05 06:40:31;;;;;;;15.98;6.63;;;8.40;99.90;;;;;;5046310;28;20444;-61
2024/03/05 06:43:05;;;;;;;15.13;6.95;;;8.40;99.90;;;;;;5036025;28;20438;-61
2024/03/05 06:45:34;;;;;;;16.08;6.22;;;8.50;99.90;;;;;;5035583;28;20825;-61
2024/03/05 06:48:01;;;;;;;18.17;7.25;;;8.50;99.90;;;;;;5033241;28;20801;-61
2024/03/05 06:50:36;;;;;;;17.00;7.60;;;8.40;99.90;;;;;;5036158;28;20806;-62
2024/03/05 06:58:34;;;;;;;16.25;6.97;;;8.60;99.90;;;;;;5056886;28;20699;-61
2024/03/05 07:01:06;;;;;;;15.88;6.90;;;8.60;99.90;;;;;;5056266;28;20468;-61
2024/03/05 07:03:34;;;;;;;19.13;7.60;;;8.70;99.90;;;;;;5055869;28;20429;-62
2024/03/05 07:06:06;;;;;;;16.02;7.85;;;8.80;99.90;;;;;;5056614;28;20491;-61
2024/03/05 07:08:35;;;;;;;14.88;6.88;;;8.80;99.90;;;;;;5055909;28;20518;-62
2024/03/05 07:11:03;;;;;;;15.43;5.78;;;8.90;99.90;;;;;;5056888;28;20523;-61
2024/03/05 07:13:30;;;;;;;17.48;7.32;;;9.30;99.90;;;;;;5055897;28;20429;-61
2024/03/05 07:15:57;;;;;;;13.52;6.50;;;9.30;99.90;;;;;;5055862;28;20460;-62
2024/03/05 07:18:25;;;;;;;15.07;5.97;;;9.30;99.90;;;;;;5053364;28;20542;-62
2024/03/05 07:20:52;;;;;;;16.20;6.55;;;9.20;99.90;;;;;;5053318;28;20436;-62
2024/03/05 07:23:20;;;;;;;16.33;6.95;;;9.30;99.90;;;;;;5054641;28;20435;-62
2024/03/05 07:25:48;;;;;;;15.43;6.60;;;9.20;99.90;;;;;;5054899;28;20465;-63
2024/03/05 07:28:16;;;;;;;20.05;8.00;;;9.20;99.90;;;;;;5055261;28;20493;-61
2024/03/05 07:30:43;;;;;;;16.03;6.10;;;9.30;99.90;;;;;;5055274;28;20542;-60
2024/03/05 07:33:17;;;;;;;13.45;6.40;;;9.30;99.90;;;;;;5055038;28;20518;-62
2024/03/05 07:35:46;;;;;;;11.40;5.60;;;9.30;99.90;;;;;;5046735;28;20421;-64
2024/03/05 07:38:14;;;;;;;12.95;7.15;;;9.50;99.90;;;;;;5053172;28;20799;-63
2024/03/05 07:40:41;;;;;;;12.13;5.57;;;9.60;93.10;;;;;;5052773;28;20739;-62
2024/03/05 07:43:09;;;;;;;14.13;5.47;;;9.50;71.80;;;;;;5052815;28;20468;-62
2024/03/05 07:45:36;;;;;;;12.23;5.95;;;9.60;99.90;;;;;;5052993;28;20520;-61
2024/03/05 07:48:03;;;;;;;13.27;6.13;;;9.70;99.90;;;;;;5052663;28;20498;-59
2024/03/05 07:50:31;;;;;;;15.68;6.65;;;9.60;60.60;;;;;;5054515;28;20429;-61
2024/03/05 07:52:58;;;;;;;15.02;6.65;;;9.60;67.70;;;;;;5053040;28;20511;-63
2024/03/05 07:55:26;;;;;;;13.00;6.40;;;9.60;99.90;;;;;;5057795;28;20433;-60
2024/03/05 07:57:53;;;;;;;10.65;5.18;;;9.70;54.00;;;;;;5050341;28;20800;-60
2024/03/05 08:00:22;;;;;;;11.10;4.97;;;9.70;66.70;;;;;;5053138;28;20419;-60
2024/03/05 08:02:53;;;;;;;13.77;5.43;;;9.90;67.20;;;;;;5047362;28;20422;-61
2024/03/05 08:05:24;;;;;;;12.13;5.75;;;10.00;55.60;;;;;;5035547;28;20716;-61
2024/03/05 08:07:53;;;;;;;12.55;6.43;;;10.00;34.70;;;;;;5034892;28;20453;-61
2024/03/05 08:10:20;;;;;;;17.48;6.35;;;10.00;99.90;;;;;;5047784;28;20436;-60
2024/03/05 08:12:49;;;;;;;12.23;5.97;;;9.80;30.00;;;;;;5052428;28;20444;-61
2024/03/05 08:15:17;;;;;;;11.52;5.45;;;9.80;99.90;;;;;;5054239;28;20499;-62
2024/03/05 08:17:47;;;;;;;11.05;5.25;;;9.70;63.80;;;;;;5054759;28;20544;-62
2024/03/05 08:20:15;;;;;;;12.32;5.10;;;9.80;99.90;;;;;;5055191;28;20439;-61
2024/03/05 08:22:42;;;;;;;11.70;4.70;;;9.80;99.90;;;;;;5054702;28;20479;-61
2024/03/05 08:25:12;;;;;;;13.68;6.10;;;9.80;99.90;;;;;;5055251;28;20441;-62
2024/03/05 08:27:41;;;;;;;14.55;5.97;;;9.90;99.90;;;;;;5054567;28;20441;-61
2024/03/05 08:30:10;;;;;;;14.00;7.38;;;9.90;99.90;;;;;;5054793;28;20429;-60
2024/03/05 08:32:37;;;;;;;13.70;7.20;;;9.80;99.90;;;;;;5055004;28;20528;-61
2024/03/05 08:35:11;;;;;;;12.23;5.50;;;9.70;99.90;;;;;;5054279;28;20554;-60
2024/03/05 08:37:41;;;;;;;11.20;5.53;;;9.60;99.90;;;;;;5051786;28;20516;-62
2024/03/05 08:40:13;;;;;;;13.30;6.00;;;9.50;99.90;;;;;;5055271;28;20719;-61
2024/03/05 08:42:42;;;;;;;12.60;6.15;;;9.50;99.90;;;;;;5055130;28;20858;-61
2024/03/05 08:45:10;;;;;;;12.68;5.88;;;9.60;99.90;;;;;;5054684;28;20491;-62
2024/03/05 08:47:37;;;;;;;13.32;5.80;;;9.80;99.90;;;;;;5053873;28;20703;-61
2024/03/05 08:50:06;;;;;;;13.38;5.72;;;9.80;99.90;;;;;;5052927;28;20426;-60
2024/03/05 08:52:34;;;;;;;13.83;7.40;;;9.90;99.90;;;;;;5052749;28;20425;-62
2024/03/05 08:55:00;;;;;;;13.15;6.80;;;9.90;99.90;;;;;;5053246;28;20436;-61
2024/03/05 08:57:27;;;;;;;16.50;7.63;;;9.80;99.90;;;;;;5051781;28;21216;-61
2024/03/05 08:59:54;;;;;;;13.60;6.00;;;9.70;99.90;;;;;;5052117;28;20412;-61
2024/03/05 09:02:21;;;;;;;17.60;8.65;;;9.70;99.90;;;;;;5038245;28;20541;-61
2024/03/05 09:04:51;;;;;;;10.77;4.55;;;9.70;99.90;;;;;;5046344;28;20424;-60
2024/03/05 09:07:20;;;;;;;10.45;4.97;;;9.70;99.90;;;;;;5050255;28;20466;-61
2024/03/05 09:09:47;;;;;;;10.85;5.35;;;9.70;99.90;;;;;;5037221;28;20867;-61
2024/03/05 09:12:14;;;;;;;9.65;3.60;;;9.70;99.90;;;;;;5037610;28;20485;-60
2024/03/05 09:14:41;;;;;;;8.80;3.67;;;9.60;99.90;;;;;;5039058;28;20506;-59
2024/03/05 09:17:09;;;;;;;10.45;3.47;;;9.40;99.90;;;;;;5063142;28;20527;-59
2024/03/05 09:19:36;;;;;;;8.50;3.42;;;9.30;99.90;;;;;;5078589;28;20423;-59
2024/03/05 09:22:04;;;;;;;6.07;2.78;;;9.30;99.90;;;;;;5078471;28;20757;-59
2024/03/05 09:24:33;;;;;;;6.05;2.42;;;9.30;99.90;;;;;;5073366;28;20456;-59
2024/03/05 09:27:00;;;;;;;5.72;2.15;;;9.40;99.90;;;;;;5057982;28;20653;-59
2024/03/05 09:29:27;;;;;;;5.80;2.10;;;9.40;99.90;;;;;;5058313;28;20468;-60
2024/03/05 09:31:54;;;;;;;3.80;1.50;;;9.50;99.90;;;;;;5058888;28;20819;-59
2024/03/05 09:34:22;;;;;;;4.30;1.77;;;9.60;99.90;;;;;;5058113;28;20491;-59
2024/03/05 09:36:48;;;;;;;3.15;1.50;;;9.40;77.80;;;;;;5057607;28;20851;-59
2024/03/05 09:39:15;;;;;;;3.58;1.40;;;9.10;99.90;;;;;;5052764;28;20760;-59
2024/03/05 09:41:45;;;;;;;4.38;1.48;;;9.10;99.90;;;;;;5056409;28;20532;-59
2024/03/05 09:44:13;;;;;;;3.60;1.30;;;8.80;99.90;;;;;;5053425;28;20442;-59
2024/03/05 09:46:45;;;;;;;5.60;2.67;;;8.70;99.90;;;;;;5051378;28;20532;-58
2024/03/05 09:49:14;;;;;;;6.40;3.55;;;8.80;99.90;;;;;;5057009;28;20433;-58
2024/03/05 09:51:41;;;;;;;2.83;1.08;;;9.10;99.90;;;;;;5055557;28;20519;-57
2024/03/05 09:54:10;;;;;;;3.40;0.90;;;9.00;99.90;;;;;;5054187;28;20961;-58
2024/03/05 09:56:40;;;;;;;2.03;0.88;;;9.10;99.90;;;;;;5055965;28;21005;-57
2024/03/05 09:59:11;;;;;;;1.77;0.80;;;9.40;99.90;;;;;;5057109;28;20512;-59
2024/03/05 10:01:41;;;;;;;2.90;0.90;;;9.40;99.90;;;;;;5057883;28;20866;-58
2024/03/05 10:04:13;;;;;;;2.50;0.80;;;9.40;99.90;;;;;;5053474;28;20474;-58
2024/03/05 10:06:40;;;;;;;1.70;0.70;;;9.30;99.90;;;;;;5049189;28;20511;-58
2024/03/05 10:09:12;;;;;;;1.38;0.70;;;9.10;99.90;;;;;;5053666;28;20537;-58
2024/03/05 10:11:40;;;;;;;1.87;0.77;;;9.00;99.90;;;;;;5051285;28;20465;-58
2024/03/05 10:14:10;;;;;;;1.40;0.80;;;9.00;99.90;;;;;;5053111;28;20472;-59
2024/03/05 10:16:37;;;;;;;1.92;0.80;;;8.90;99.90;;;;;;5054078;28;20832;-57
2024/03/05 10:19:15;;;;;;;3.90;0.90;;;8.80;99.90;;;;;;5050928;28;20476;-59
2024/03/05 10:21:43;;;;;;;2.28;0.85;;;8.60;99.90;;;;;;5051016;28;20556;-59
2024/03/05 10:24:12;;;;;;;1.58;0.80;;;8.60;99.90;;;;;;5044500;28;20435;-59
2024/03/05 10:26:41;;;;;;;1.80;0.80;;;8.50;99.90;;;;;;5053971;28;20528;-63
2024/03/05 10:29:10;;;;;;;1.15;0.70;;;8.50;99.90;;;;;;5054802;28;20445;-63
2024/03/05 10:31:39;;;;;;;2.08;0.80;;;8.50;99.90;;;;;;5053455;28;20433;-61
2024/03/05 10:34:07;;;;;;;1.52;0.70;;;8.70;99.90;;;;;;5055610;28;20524;-60
2024/03/05 10:36:35;;;;;;;1.38;0.70;;;8.90;99.90;;;;;;5046083;28;20521;-60
2024/03/05 10:39:02;;;;;;;2.13;0.70;;;9.10;99.90;;;;;;5066616;28;20452;-59
2024/03/05 10:41:31;;;;;;;1.48;0.80;;;9.50;99.90;;;;;;5055573;28;20453;-60
2024/03/05 10:44:01;;;;;;;1.67;0.80;;;9.70;99.90;;;;;;5057092;28;20525;-61
2024/03/05 10:46:31;;;;;;;2.00;0.80;;;9.60;99.90;;;;;;5056261;28;20447;-59
2024/03/05 10:48:58;;;;;;;1.60;0.80;;;9.70;99.90;;;;;;5069882;28;20445;-59
2024/03/05 10:51:29;;;;;;;0.90;0.60;;;9.80;26.90;;;;;;5076496;28;20438;-59
2024/03/05 10:53:59;;;;;;;1.30;0.70;;;9.90;99.90;;;;;;5074249;28;20420;-59
2024/03/05 10:56:27;;;;;;;2.70;0.80;;;10.00;99.90;;;;;;5033437;28;20433;-59
2024/03/05 11:01:40;;;;;;;1.50;0.90;;;10.20;4.50;;;;;;5036737;28;20430;-59
2024/03/05 11:04:15;;;;;;;1.30;0.70;;;10.10;7.00;;;;;;5039254;28;20817;-59
2024/03/05 11:06:42;;;;;;;1.80;0.80;;;10.20;8.80;;;;;;5042211;28;20525;-59
2024/03/05 11:09:15;;;;;;;1.80;0.80;;;10.20;1.00;;;;;;5042038;28;20519;-60
2024/03/05 11:11:49;;;;;;;1.70;0.90;;;10.10;1.00;;;;;;5036214;28;20462;-59
2024/03/05 11:14:18;;;;;;;2.70;0.90;;;10.00;1.00;;;;;;5050630;28;20500;-59
2024/03/05 11:16:57;;;;;;;2.37;0.90;;;9.90;14.70;;;;;;5038471;28;20461;-60
2024/03/05 11:19:28;;;;;;;1.60;0.93;;;10.00;99.90;;;;;;5045608;28;20421;-60
2024/03/05 11:21:58;;;;;;;2.53;0.90;;;9.90;99.90;;;;;;5056273;28;20964;-59
2024/03/05 11:24:28;;;;;;;3.80;0.93;;;10.00;99.90;;;;;;5054701;28;20585;-61
2024/03/05 11:27:11;;;;;;;2.20;0.90;;;10.00;99.90;;;;;;5054730;28;20764;-59
2024/03/05 11:29:42;;;;;;;1.30;0.80;;;10.00;99.90;;;;;;5046479;28;20435;-59
2024/03/05 11:32:16;;;;;;;2.80;0.90;;;10.10;99.90;;;;;;5042015;28;20434;-60
2024/03/05 11:34:47;;;;;;;1.30;0.70;;;10.00;99.90;;;;;;5036674;28;20429;-60
2024/03/05 11:37:16;;;;;;;1.40;0.70;;;9.90;99.90;;;;;;5054706;28;20556;-59
2024/03/05 11:39:44;;;;;;;0.83;0.60;;;10.10;99.90;;;;;;5041834;28;20458;-60
2024/03/05 11:42:18;;;;;;;1.27;0.60;;;10.20;99.90;;;;;;5035273;28;20752;-59
2024/03/05 11:44:53;;;;;;;1.98;0.60;;;10.00;99.90;;;;;;5042899;28;20480;-60
2024/03/05 11:47:25;;;;;;;1.00;0.60;;;9.90;99.90;;;;;;5055095;28;20524;-60
2024/03/05 11:49:52;;;;;;;1.10;0.50;;;9.90;99.90;;;;;;5053436;28;20533;-60
2024/03/05 11:52:20;;;;;;;1.30;0.60;;;10.10;99.90;;;;;;5055705;28;20482;-59
2024/03/05 11:55:07;;;;;;;0.90;0.50;;;9.80;99.90;;;;;;5050176;28;20433;-59
2024/03/05 11:57:36;;;;;;;1.00;0.60;;;9.70;99.90;;;;;;5055440;28;20472;-60
2024/03/05 12:00:14;;;;;;;1.10;0.60;;;9.60;99.90;;;;;;5055810;28;20803;-59
2024/03/05 12:02:43;;;;;;;0.90;0.60;;;9.50;99.90;;;;;;5053461;28;20487;-59
2024/03/05 12:05:13;;;;;;;0.73;0.50;;;9.60;99.90;;;;;;5055238;28;20882;-60
2024/03/05 12:07:40;;;;;;;1.00;0.50;;;9.60;99.90;;;;;;5055182;28;20475;-59
2024/03/05 12:10:07;;;;;;;0.90;0.50;;;9.40;99.90;;;;;;5046398;28;20863;-60
2024/03/05 12:12:38;;;;;;;0.95;0.50;;;9.30;99.90;;;;;;5046960;28;20433;-59
2024/03/05 12:15:08;;;;;;;0.80;0.43;;;9.10;99.90;;;;;;5048327;28;20738;-60
2024/03/05 12:17:35;;;;;;;2.00;0.50;;;9.00;1.00;;;;;;5054280;28;20756;-60
2024/03/05 12:20:07;;;;;;;1.02;0.50;;;9.20;1.00;;;;;;5049541;28;20875;-61
2024/03/05 12:22:36;;;;;;;0.90;0.50;;;9.30;99.90;;;;;;5033146;28;20788;-61
2024/03/05 12:25:03;;;;;;;1.17;0.50;;;9.40;99.90;;;;;;5042953;28;20421;-60
2024/03/05 12:27:30;;;;;;;0.80;0.50;;;9.50;99.90;;;;;;5054771;28;20532;-61
2024/03/05 12:30:01;;;;;;;0.80;0.40;;;9.70;99.90;;;;;;5055046;28;20535;-59
2024/03/05 12:32:28;;;;;;;0.70;0.50;;;9.80;99.90;;;;;;5053820;28;20886;-59
2024/03/05 12:34:56;;;;;;;1.40;0.50;;;10.00;99.90;;;;;;5053280;28;20421;-59
2024/03/05 12:37:30;;;;;;;0.80;0.50;;;10.10;99.90;;;;;;5052976;28;20508;-60
2024/03/05 12:40:04;;;;;;;0.98;0.50;;;10.10;99.90;;;;;;5052248;28;21136;-60
2024/03/05 12:42:31;;;;;;;0.90;0.40;;;10.10;99.90;;;;;;5053454;28;20465;-60
2024/03/05 12:45:04;;;;;;;0.73;0.40;;;10.20;99.90;;;;;;5053769;28;20516;-59
2024/03/05 12:47:31;;;;;;;0.70;0.40;;;10.20;99.90;;;;;;5051863;28;20444;-60
2024/03/05 12:50:01;;;;;;;0.88;0.50;;;10.20;99.90;;;;;;5035785;28;20826;-60
2024/03/05 12:52:31;;;;;;;0.70;0.40;;;10.20;99.90;;;;;;5037521;28;20573;-60
2024/03/05 12:54:59;;;;;;;0.70;0.40;;;10.30;99.90;;;;;;5052534;28;20433;-62
2024/03/05 12:57:27;;;;;;;0.70;0.40;;;10.40;99.90;;;;;;5053022;28;20421;-60
2024/03/05 13:00:00;;;;;;;0.77;0.40;;;10.60;99.90;;;;;;5054215;28;20519;-60
2024/03/05 13:02:28;;;;;;;0.80;0.40;;;10.50;99.90;;;;;;5054509;28;20429;-60
2024/03/05 13:04:55;;;;;;;0.60;0.40;;;10.70;99.90;;;;;;5053483;28;20841;-59